Time;durP1;ratioP1;P1;durP2;ratioP2;P2;SDS_P1;SDS_P2;PMS_P1;PMS_P2;Temp;Humidity;BMP_temperature;BMP_pressure;BME280_temperature;BME280_humidity;BME280_pressure;Samples;Min_cycle;Max_cycle;Signal;HPM_P1;HPM_P2
2022/02/20 00:02:07;;;;;;;3.30;3.20;;;;;;;6.88;89.06;100375.06;6013712;23;20077;-69
2022/02/20 00:04:33;;;;;;;5.03;4.82;;;;;;;6.88;88.09;100399.38;6032565;23;20443;-70
2022/02/20 00:07:00;;;;;;;3.17;3.08;;;;;;;6.48;87.38;100327.19;6038816;23;20591;-68
2022/02/20 00:09:26;;;;;;;3.65;3.53;;;;;;;6.09;87.18;100280.97;6025615;23;20070;-69
2022/02/20 00:11:53;;;;;;;3.10;3.00;;;;;;;6.83;86.50;100403.94;6029516;23;20034;-69
2022/02/20 00:14:19;;;;;;;3.40;3.30;;;;;;;6.73;85.36;100400.84;5996928;23;20086;-69
2022/02/20 00:16:47;;;;;;;4.10;3.90;;;;;;;6.78;84.39;100419.78;6029867;23;20081;-69
2022/02/20 00:19:13;;;;;;;3.15;3.05;;;;;;;6.83;82.21;100419.56;6023593;23;20082;-69
2022/02/20 00:21:39;;;;;;;4.78;4.57;;;;;;;6.81;81.13;100431.00;5979717;23;20102;-68
2022/02/20 00:24:06;;;;;;;3.28;3.17;;;;;;;6.12;79.56;100340.78;6008651;23;20023;-68
2022/02/20 00:26:32;;;;;;;4.97;4.78;;;;;;;6.68;79.23;100464.56;6038615;23;20014;-68
2022/02/20 00:28:59;;;;;;;3.30;3.20;;;;;;;6.62;78.61;100455.22;6018780;23;20083;-69
2022/02/20 00:31:25;;;;;;;3.50;3.40;;;;;;;6.47;79.84;100469.69;6007565;23;20039;-69
2022/02/20 00:33:52;;;;;;;3.17;3.08;;;;;;;5.82;79.28;100387.91;6039235;23;20018;-69
2022/02/20 00:36:19;;;;;;;3.10;3.00;;;;;;;6.11;80.20;100451.09;6034057;23;20094;-68
2022/02/20 00:38:45;;;;;;;3.58;3.47;;;;;;;5.73;79.96;100396.03;6000944;23;20014;-68
2022/02/20 00:41:12;;;;;;;3.03;2.92;;;;;;;5.74;80.03;100421.19;6037036;23;20037;-69
2022/02/20 00:43:38;;;;;;;4.75;4.55;;;;;;;5.70;79.29;100428.25;6000260;23;20093;-68
2022/02/20 00:46:05;;;;;;;3.28;3.17;;;;;;;5.92;80.04;100461.34;6009729;23;20098;-69
2022/02/20 00:48:31;;;;;;;4.78;4.57;;;;;;;6.12;79.05;100507.53;6004021;23;20019;-69
2022/02/20 00:50:58;;;;;;;3.10;3.00;;;;;;;6.04;80.25;100501.75;6029563;23;20035;-68
2022/02/20 00:53:26;;;;;;;3.20;3.10;;;;;;;4.88;79.27;100365.22;6027859;23;20437;-70
2022/02/20 00:55:52;;;;;;;2.90;2.80;;;;;;;5.87;78.45;100497.94;6032872;23;20088;-68
2022/02/20 00:58:19;;;;;;;3.20;3.10;;;;;;;5.78;78.24;100480.06;6029098;23;20042;-69
2022/02/20 01:00:45;;;;;;;5.20;4.90;;;;;;;6.12;76.93;100523.16;6004520;23;20749;-69
2022/02/20 01:03:12;;;;;;;2.95;2.85;;;;;;;5.84;77.59;100494.63;6040222;23;20026;-68
2022/02/20 01:05:38;;;;;;;4.80;4.60;;;;;;;5.80;77.80;100473.03;6016842;23;20076;-68
2022/02/20 01:08:06;;;;;;;3.03;2.92;;;;;;;6.21;77.33;100548.84;6039713;23;20037;-68
2022/02/20 01:10:32;;;;;;;5.43;5.03;;;;;;;5.33;77.58;100400.94;6025315;23;20018;-69
2022/02/20 01:13:01;;;;;;;3.17;3.08;;;;;;;6.13;77.20;100556.97;6006559;23;20047;-69
2022/02/20 01:15:27;;;;;;;3.65;3.50;;;;;;;6.06;77.08;100576.31;6007209;23;20053;-68
2022/02/20 01:17:54;;;;;;;3.20;3.10;;;;;;;5.55;76.29;100467.84;6040508;23;20014;-69
2022/02/20 01:20:20;;;;;;;3.42;3.33;;;;;;;5.66;77.12;100532.56;6037525;23;20034;-70
2022/02/20 01:22:46;;;;;;;3.10;3.00;;;;;;;5.96;77.49;100573.19;6002023;23;20403;-68
2022/02/20 01:25:13;;;;;;;3.08;2.97;;;;;;;5.68;77.38;100543.78;6037065;23;20020;-69
2022/02/20 01:27:39;;;;;;;5.25;5.05;;;;;;;5.85;77.07;100579.63;6005708;23;20038;-68
2022/02/20 01:30:09;;;;;;;3.20;3.10;;;;;;;5.42;76.45;100532.50;6041242;23;20030;-68
2022/02/20 01:32:35;;;;;;;4.55;4.35;;;;;;;5.72;76.46;100592.25;6022553;23;20085;-68
2022/02/20 01:35:02;;;;;;;2.90;2.80;;;;;;;5.56;78.42;100603.16;6012207;23;20074;-68
2022/02/20 01:37:29;;;;;;;3.67;3.55;;;;;;;5.14;78.50;100556.81;6026060;23;20013;-70
2022/02/20 01:39:55;;;;;;;3.10;3.00;;;;;;;5.34;79.34;100603.00;5997509;23;20011;-69
2022/02/20 01:42:21;;;;;;;3.20;3.10;;;;;;;5.24;80.30;100616.38;6001628;23;20038;-69
2022/02/20 01:44:48;;;;;;;3.25;3.15;;;;;;;4.92;81.08;100577.44;6028358;23;20055;-66
2022/02/20 01:47:15;;;;;;;3.08;2.97;;;;;;;5.25;81.38;100628.47;6031676;23;20719;-69
2022/02/20 01:49:42;;;;;;;4.65;4.45;;;;;;;5.14;80.50;100655.66;5999703;23;20019;-68
2022/02/20 01:52:09;;;;;;;3.22;3.03;;;;;;;4.58;81.57;100590.59;6025225;23;20093;-69
2022/02/20 01:54:36;;;;;;;4.63;4.43;;;;;;;4.95;81.49;100667.50;6033067;23;20066;-68
2022/02/20 01:57:03;;;;;;;2.90;2.80;;;;;;;4.37;81.88;100592.91;6019807;23;20022;-67
2022/02/20 01:59:29;;;;;;;4.85;4.65;;;;;;;4.69;82.06;100669.13;6032364;23;20017;-68
2022/02/20 02:01:56;;;;;;;3.00;2.90;;;;;;;4.27;82.16;100639.97;6037072;23;20400;-68
2022/02/20 02:04:23;;;;;;;2.97;2.88;;;;;;;3.87;81.75;100584.75;6038750;23;20587;-70
2022/02/20 02:06:50;;;;;;;3.20;3.10;;;;;;;4.37;82.71;100696.84;6008119;23;20054;-69
2022/02/20 02:09:17;;;;;;;3.10;3.00;;;;;;;4.30;82.76;100689.25;5999393;23;20022;-68
2022/02/20 02:11:47;;;;;;;3.92;3.72;;;;;;;4.28;83.47;100698.84;6035809;23;20281;-71
2022/02/20 02:14:13;;;;;;;2.97;2.88;;;;;;;4.24;82.43;100700.66;6024711;23;20038;-68
2022/02/20 02:16:40;;;;;;;2.97;2.88;;;;;;;4.11;83.65;100713.09;6040302;23;20413;-68
2022/02/20 02:19:07;;;;;;;2.95;2.85;;;;;;;4.08;84.08;100712.31;6031190;23;20331;-68
2022/02/20 02:21:33;;;;;;;4.50;4.30;;;;;;;3.81;83.59;100662.81;5979185;23;20015;-69
2022/02/20 02:23:59;;;;;;;3.30;3.20;;;;;;;3.92;82.44;100676.34;6012394;23;20017;-68
2022/02/20 02:26:27;;;;;;;3.33;3.20;;;;;;;3.93;82.60;100680.66;6032211;23;20029;-69
2022/02/20 02:28:53;;;;;;;2.80;2.70;;;;;;;3.71;82.98;100654.38;6011638;23;20093;-68
2022/02/20 02:31:20;;;;;;;3.00;2.90;;;;;;;3.70;82.91;100663.03;6004502;23;20090;-68
2022/02/20 02:33:47;;;;;;;2.80;2.70;;;;;;;3.95;82.68;100717.81;6009301;23;20055;-67
2022/02/20 02:36:13;;;;;;;2.67;2.58;;;;;;;3.91;84.32;100723.13;6022458;23;20046;-68
2022/02/20 02:38:40;;;;;;;3.00;2.90;;;;;;;3.51;83.94;100680.81;6011115;23;20019;-68
2022/02/20 02:41:09;;;;;;;2.78;2.67;;;;;;;3.65;83.36;100700.38;5996896;23;20070;-67
2022/02/20 02:43:37;;;;;;;2.72;2.63;;;;;;;3.52;83.21;100687.69;6011273;23;20011;-69
2022/02/20 02:46:05;;;;;;;2.80;2.70;;;;;;;3.30;83.36;100645.81;5985800;23;20022;-68
2022/02/20 02:48:32;;;;;;;2.80;2.70;;;;;;;3.33;83.72;100691.63;6041297;23;20007;-67
2022/02/20 02:51:01;;;;;;;2.70;2.60;;;;;;;3.66;84.36;100747.06;6035407;23;20021;-68
2022/02/20 02:53:31;;;;;;;3.72;3.58;;;;;;;3.62;84.44;100740.22;6040978;23;20833;-69
2022/02/20 02:55:57;;;;;;;2.80;2.70;;;;;;;3.56;84.92;100751.59;5978340;23;20042;-68
2022/02/20 02:58:25;;;;;;;2.70;2.60;;;;;;;3.50;85.99;100748.28;6025735;23;20015;-70
2022/02/20 03:00:54;;;;;;;2.85;2.75;;;;;;;3.50;85.64;100749.16;6029997;23;20011;-67
2022/02/20 03:03:21;;;;;;;2.75;2.65;;;;;;;3.15;84.95;100685.94;5996138;23;20038;-68
2022/02/20 03:05:49;;;;;;;2.80;2.70;;;;;;;3.02;84.80;100662.91;6025746;23;20604;-68
2022/02/20 03:08:15;;;;;;;2.80;2.70;;;;;;;3.47;85.71;100779.47;6034369;23;20419;-68
2022/02/20 03:10:42;;;;;;;4.07;3.88;;;;;;;3.05;85.55;100720.72;5994006;23;20027;-69
2022/02/20 03:13:08;;;;;;;2.88;2.78;;;;;;;3.38;85.72;100781.38;6025427;23;20031;-68
2022/02/20 03:15:35;;;;;;;4.22;4.03;;;;;;;3.35;85.79;100794.44;6030973;23;20057;-68
2022/02/20 03:18:01;;;;;;;2.70;2.60;;;;;;;3.13;85.63;100749.94;6005489;23;20038;-68
2022/02/20 03:20:28;;;;;;;3.30;3.10;;;;;;;3.23;85.63;100778.25;6034997;23;20463;-69
2022/02/20 03:22:54;;;;;;;2.80;2.70;;;;;;;3.10;85.90;100782.84;6003862;23;20038;-67
2022/02/20 03:25:20;;;;;;;2.80;2.70;;;;;;;2.87;85.90;100739.25;5981119;23;20022;-67
2022/02/20 03:27:47;;;;;;;3.03;2.92;;;;;;;2.63;86.72;100720.69;6040433;23;20037;-68
2022/02/20 03:30:14;;;;;;;2.90;2.80;;;;;;;3.11;86.96;100806.16;6036653;23;20026;-67
2022/02/20 03:32:40;;;;;;;2.85;2.75;;;;;;;3.14;87.03;100800.91;6005246;23;20078;-68
2022/02/20 03:35:07;;;;;;;2.92;2.83;;;;;;;3.18;87.08;100801.69;6029163;23;20022;-67
2022/02/20 03:37:33;;;;;;;4.55;4.35;;;;;;;3.10;86.80;100773.31;6026729;23;20368;-68
2022/02/20 03:40:00;;;;;;;2.70;2.60;;;;;;;2.71;86.62;100711.03;5991144;23;20564;-68
2022/02/20 03:42:27;;;;;;;3.22;3.13;;;;;;;3.23;86.82;100804.19;6030208;23;20033;-68
2022/02/20 03:44:53;;;;;;;2.80;2.70;;;;;;;3.16;86.90;100804.31;5996614;23;20489;-68
2022/02/20 03:47:20;;;;;;;2.90;2.80;;;;;;;3.16;86.50;100809.50;6028497;23;20021;-67
2022/02/20 03:49:46;;;;;;;2.60;2.50;;;;;;;3.16;87.24;100812.09;6021499;23;20038;-67
2022/02/20 03:52:13;;;;;;;2.83;2.72;;;;;;;2.92;87.54;100781.47;6007386;23;20518;-69
2022/02/20 03:54:39;;;;;;;4.65;4.45;;;;;;;3.11;87.08;100813.09;6003086;23;20067;-68
2022/02/20 03:57:06;;;;;;;2.60;2.50;;;;;;;3.04;87.79;100804.56;6023592;23;20065;-67
2022/02/20 03:59:32;;;;;;;4.18;3.97;;;;;;;3.01;88.28;100804.63;5998970;23;20409;-68
2022/02/20 04:01:59;;;;;;;2.80;2.70;;;;;;;2.96;88.39;100802.13;6051435;23;20050;-66
2022/02/20 04:04:25;;;;;;;2.72;2.63;;;;;;;2.88;89.13;100798.81;6027721;23;20018;-70
2022/02/20 04:06:52;;;;;;;2.88;2.78;;;;;;;2.79;89.31;100799.00;6013943;23;20015;-67
2022/02/20 04:09:18;;;;;;;2.70;2.60;;;;;;;2.19;89.38;100712.84;6003544;23;20023;-68
2022/02/20 04:11:45;;;;;;;3.30;3.20;;;;;;;2.60;89.64;100788.09;5999373;23;20393;-67
2022/02/20 04:14:11;;;;;;;3.05;2.83;;;;;;;2.68;89.73;100796.59;6033168;23;20026;-67
2022/02/20 04:16:38;;;;;;;4.05;3.85;;;;;;;2.22;90.38;100736.97;6009769;23;20032;-67
2022/02/20 04:19:04;;;;;;;3.25;3.15;;;;;;;2.47;90.41;100794.41;6024667;23;20024;-67
2022/02/20 04:21:30;;;;;;;4.57;4.13;;;;;;;1.91;90.34;100712.47;6007637;23;20015;-67
2022/02/20 04:23:57;;;;;;;2.60;2.50;;;;;;;2.14;90.95;100760.41;6014567;23;20420;-68
2022/02/20 04:26:23;;;;;;;2.90;2.80;;;;;;;1.68;91.67;100697.28;5992607;23;20022;-70
2022/02/20 04:28:50;;;;;;;2.78;2.67;;;;;;;2.21;92.30;100785.31;6021707;23;20022;-67
2022/02/20 04:31:17;;;;;;;2.88;2.78;;;;;;;2.17;91.72;100781.06;6018883;23;20026;-68
2022/02/20 04:33:45;;;;;;;5.80;4.30;;;;;;;2.14;92.30;100779.38;6035166;23;20475;-68
2022/02/20 04:36:12;;;;;;;2.95;2.85;;;;;;;2.16;92.51;100775.03;6028642;23;20022;-68
2022/02/20 04:38:39;;;;;;;4.55;4.35;;;;;;;2.14;92.57;100773.34;5970255;23;20030;-68
2022/02/20 04:41:06;;;;;;;2.80;2.70;;;;;;;2.13;92.68;100782.00;6035160;23;20364;-67
2022/02/20 04:43:32;;;;;;;3.90;3.75;;;;;;;2.11;92.77;100782.03;6005062;23;20018;-67
2022/02/20 04:45:59;;;;;;;2.70;2.60;;;;;;;2.13;92.93;100776.84;6006626;23;20169;-67
2022/02/20 04:48:26;;;;;;;2.72;2.63;;;;;;;2.16;92.74;100785.38;6032425;23;20021;-70
2022/02/20 04:50:52;;;;;;;3.00;2.90;;;;;;;1.89;93.03;100728.91;6026292;23;20015;-68
2022/02/20 04:53:18;;;;;;;3.05;2.90;;;;;;;2.24;93.45;100771.47;6032405;23;20023;-67
2022/02/20 04:55:45;;;;;;;3.10;3.00;;;;;;;2.30;93.07;100767.03;5993003;23;20283;-67
2022/02/20 04:58:11;;;;;;;3.42;3.25;;;;;;;2.23;93.34;100736.13;6032018;23;20693;-67
2022/02/20 05:00:38;;;;;;;3.97;3.80;;;;;;;2.51;93.85;100749.44;6000703;23;20039;-67
2022/02/20 05:03:04;;;;;;;2.70;2.60;;;;;;;2.42;94.18;100716.75;6054190;23;20033;-68
2022/02/20 05:05:31;;;;;;;4.35;4.15;;;;;;;2.64;94.13;100743.13;5999879;23;20090;-68
2022/02/20 05:07:57;;;;;;;3.17;2.97;;;;;;;2.70;93.53;100735.22;6034707;23;20029;-68
2022/02/20 05:10:24;;;;;;;3.13;3.03;;;;;;;2.75;93.91;100735.16;5999755;23;20094;-68
2022/02/20 05:12:50;;;;;;;2.72;2.63;;;;;;;2.63;94.89;100706.91;6029776;23;20014;-68
2022/02/20 05:15:17;;;;;;;3.00;2.90;;;;;;;2.88;94.30;100735.75;6038868;23;20027;-68
2022/02/20 05:17:43;;;;;;;4.25;4.05;;;;;;;2.90;94.54;100728.81;6003444;23;20027;-68
2022/02/20 05:20:10;;;;;;;2.80;2.70;;;;;;;2.96;93.86;100721.75;6041085;23;20085;-68
2022/02/20 05:22:37;;;;;;;4.07;3.88;;;;;;;2.48;93.75;100633.75;5980378;23;20184;-68
2022/02/20 05:25:03;;;;;;;3.10;3.00;;;;;;;3.06;93.73;100713.78;6037638;23;20014;-67
2022/02/20 05:27:30;;;;;;;4.35;4.15;;;;;;;3.04;94.00;100695.69;6039883;23;20042;-69
2022/02/20 05:29:57;;;;;;;2.85;2.75;;;;;;;3.10;93.06;100702.47;5997437;23;20081;-68
2022/02/20 05:32:24;;;;;;;3.10;3.00;;;;;;;3.06;93.17;100690.47;6036856;23;20389;-68
2022/02/20 05:34:56;;;;;;;3.22;3.13;;;;;;;3.13;93.00;100695.50;5996299;23;20385;-68
2022/02/20 05:37:24;;;;;;;3.10;3.00;;;;;;;2.52;92.92;100613.84;6035233;23;20613;-69
2022/02/20 05:39:50;;;;;;;2.90;2.80;;;;;;;3.03;94.12;100678.44;6003699;23;20109;-68
2022/02/20 05:42:17;;;;;;;2.90;2.80;;;;;;;2.64;94.35;100620.50;6029983;23;20046;-67
2022/02/20 05:44:43;;;;;;;3.70;3.60;;;;;;;2.57;94.02;100596.47;6010556;23;20352;-68
2022/02/20 05:47:10;;;;;;;4.60;4.40;;;;;;;3.04;94.54;100680.13;6034954;23;20016;-68
2022/02/20 05:49:36;;;;;;;4.43;4.22;;;;;;;2.05;94.43;100487.03;6029905;23;20540;-67
2022/02/20 05:52:03;;;;;;;2.70;2.60;;;;;;;3.31;94.57;100680.41;6033720;23;20089;-68
2022/02/20 05:54:30;;;;;;;3.78;3.58;;;;;;;3.35;94.66;100674.28;6006958;23;20076;-68
2022/02/20 05:56:56;;;;;;;3.00;2.90;;;;;;;2.71;94.31;100552.97;6024052;23;20050;-68
2022/02/20 05:59:22;;;;;;;2.90;2.80;;;;;;;3.40;95.22;100649.06;6033571;23;20078;-68
2022/02/20 06:01:49;;;;;;;2.80;2.70;;;;;;;3.45;94.64;100655.00;5977770;23;20398;-68
2022/02/20 06:04:16;;;;;;;3.03;2.92;;;;;;;3.54;95.11;100656.53;6042903;23;20086;-68
2022/02/20 06:06:42;;;;;;;4.55;4.35;;;;;;;3.56;94.86;100653.00;6034532;23;20054;-68
2022/02/20 06:09:08;;;;;;;2.97;2.88;;;;;;;3.58;94.36;100650.38;6037390;23;20022;-69
2022/02/20 06:11:36;;;;;;;4.25;4.05;;;;;;;3.62;94.80;100651.16;6027551;23;20033;-68
2022/02/20 06:14:03;;;;;;;2.70;2.60;;;;;;;2.92;95.35;100519.69;5996794;23;20091;-68
2022/02/20 06:16:29;;;;;;;3.53;3.42;;;;;;;3.70;95.77;100631.91;6011563;23;20014;-67
2022/02/20 06:18:59;;;;;;;3.03;2.92;;;;;;;3.77;95.43;100630.03;6006765;23;20007;-68
2022/02/20 06:21:26;;;;;;;3.90;3.55;;;;;;;3.25;96.07;100522.34;6032809;23;20532;-70
2022/02/20 06:23:52;;;;;;;2.97;2.88;;;;;;;3.87;96.57;100618.50;6013244;23;20028;-69
2022/02/20 06:26:19;;;;;;;2.90;2.80;;;;;;;3.75;97.00;100585.09;6035393;23;20027;-68
2022/02/20 06:28:45;;;;;;;2.75;2.65;;;;;;;2.86;97.95;100429.13;6030394;23;20034;-69
2022/02/20 06:31:12;;;;;;;2.90;2.80;;;;;;;3.56;97.99;100537.97;6014831;23;20054;-68
2022/02/20 06:33:38;;;;;;;4.47;4.28;;;;;;;3.71;98.60;100558.34;5989238;23;20069;-68
2022/02/20 06:36:06;;;;;;;3.00;2.90;;;;;;;3.71;99.12;100558.34;6018757;23;20034;-68
2022/02/20 06:38:33;;;;;;;4.20;4.00;;;;;;;3.50;99.28;100491.44;5992550;23;20098;-68
2022/02/20 06:40:59;;;;;;;2.97;2.88;;;;;;;4.20;99.59;100602.91;6021533;23;20023;-68
2022/02/20 06:43:26;;;;;;;3.35;3.25;;;;;;;4.26;99.59;100594.94;5999241;23;20026;-69
2022/02/20 06:45:52;;;;;;;3.35;3.25;;;;;;;4.32;99.66;100573.16;5992701;23;20091;-69
2022/02/20 06:48:19;;;;;;;5.55;5.25;;;;;;;4.36;99.93;100569.56;5992366;23;20038;-69
2022/02/20 06:50:45;;;;;;;3.15;3.05;;;;;;;4.43;100.00;100557.25;5993422;23;20157;-69
2022/02/20 06:53:11;;;;;;;3.15;3.05;;;;;;;4.45;100.00;100556.34;6007544;23;20060;-69
2022/02/20 06:55:38;;;;;;;4.43;4.22;;;;;;;4.09;100.00;100478.56;6024852;23;20472;-69
2022/02/20 06:58:05;;;;;;;3.10;3.00;;;;;;;4.29;100.00;100511.75;6001976;23;20040;-69
2022/02/20 07:00:32;;;;;;;4.40;4.20;;;;;;;3.92;100.00;100431.47;6015368;23;20401;-68
2022/02/20 07:02:59;;;;;;;3.30;3.20;;;;;;;4.58;100.00;100529.06;5976576;23;20042;-69
2022/02/20 07:05:26;;;;;;;3.55;3.40;;;;;;;4.63;100.00;100528.94;6029801;23;20019;-69
2022/02/20 07:07:52;;;;;;;3.30;3.20;;;;;;;4.82;100.00;100543.97;5979095;23;20019;-69
2022/02/20 07:10:19;;;;;;;3.20;3.10;;;;;;;4.28;100.00;100429.50;6000260;23;20022;-69
2022/02/20 07:12:45;;;;;;;3.58;3.47;;;;;;;4.96;100.00;100510.59;6024503;23;20010;-69
2022/02/20 07:15:12;;;;;;;3.30;3.20;;;;;;;4.53;100.00;100401.03;6033257;23;20030;-69
2022/02/20 07:17:38;;;;;;;4.65;4.45;;;;;;;5.20;100.00;100491.56;6018513;23;20472;-69
2022/02/20 07:20:05;;;;;;;3.20;3.10;;;;;;;5.51;100.00;100511.38;6010538;23;20082;-69
2022/02/20 07:22:32;;;;;;;4.78;4.57;;;;;;;5.50;100.00;100478.41;5999290;23;20403;-70
2022/02/20 07:24:59;;;;;;;3.40;3.30;;;;;;;5.55;100.00;100475.66;6024750;23;20060;-68
2022/02/20 07:27:27;;;;;;;3.72;3.58;;;;;;;5.84;100.00;100490.25;6026827;23;20459;-69
2022/02/20 07:29:53;;;;;;;3.08;2.97;;;;;;;6.03;100.00;100526.06;5997963;23;20083;-68
2022/02/20 07:32:20;;;;;;;3.50;3.40;;;;;;;6.10;100.00;100530.19;6040367;23;20034;-68
2022/02/20 07:34:47;;;;;;;3.45;3.35;;;;;;;6.18;100.00;100515.94;5994894;23;20034;-69
2022/02/20 07:37:13;;;;;;;3.55;3.45;;;;;;;6.27;100.00;100526.94;6031078;23;20031;-70
2022/02/20 07:39:40;;;;;;;4.75;4.55;;;;;;;6.24;100.00;100516.66;5996291;23;20037;-69
2022/02/20 07:42:06;;;;;;;3.42;3.33;;;;;;;6.40;100.00;100522.97;5987986;23;20071;-69
2022/02/20 07:44:34;;;;;;;4.63;4.43;;;;;;;6.31;100.00;100516.34;6010447;23;20007;-71
2022/02/20 07:47:01;;;;;;;3.40;3.30;;;;;;;6.44;100.00;100521.13;5974035;23;20667;-69
2022/02/20 07:49:28;;;;;;;3.63;3.53;;;;;;;6.55;100.00;100524.13;5992346;23;20026;-69
2022/02/20 07:51:54;;;;;;;3.60;3.50;;;;;;;6.63;100.00;100519.47;5995770;23;20058;-69
2022/02/20 07:54:21;;;;;;;3.35;3.25;;;;;;;6.26;100.00;100453.13;6004518;23;20043;-69
2022/02/20 07:56:47;;;;;;;3.70;3.60;;;;;;;6.70;100.00;100513.13;5981442;23;20023;-69
2022/02/20 07:59:14;;;;;;;3.58;3.47;;;;;;;6.77;100.00;100517.19;6021655;23;20070;-68
2022/02/20 08:01:40;;;;;;;3.50;3.40;;;;;;;6.81;100.00;100512.69;6002324;23;20864;-68
2022/02/20 08:04:07;;;;;;;3.40;3.30;;;;;;;6.91;100.00;100510.56;6017418;23;20038;-69
2022/02/20 08:06:33;;;;;;;4.90;4.70;;;;;;;6.91;100.00;100500.13;5991955;23;20130;-69
2022/02/20 08:09:03;;;;;;;3.60;3.50;;;;;;;6.74;100.00;100459.94;6019334;23;20042;-68
2022/02/20 08:11:31;;;;;;;4.40;4.20;;;;;;;7.04;100.00;100506.56;5995114;23;20139;-70
2022/02/20 08:13:58;;;;;;;3.50;3.40;;;;;;;7.08;100.00;100495.09;6001032;23;20014;-70
2022/02/20 08:16:26;;;;;;;3.60;3.50;;;;;;;6.13;100.00;100339.84;6021249;23;20039;-70
2022/02/20 08:18:52;;;;;;;3.50;3.40;;;;;;;7.17;100.00;100501.69;6013605;23;20007;-69
2022/02/20 08:21:19;;;;;;;3.58;3.47;;;;;;;7.22;100.00;100489.31;6002756;23;20030;-68
2022/02/20 08:23:46;;;;;;;3.42;3.33;;;;;;;7.29;100.00;100495.94;6027206;23;20015;-68
2022/02/20 08:26:13;;;;;;;3.42;3.33;;;;;;;7.22;100.00;100478.88;6039023;23;20215;-69
2022/02/20 08:28:40;;;;;;;4.68;4.47;;;;;;;6.97;100.00;100432.91;6032583;23;20022;-69
2022/02/20 08:31:06;;;;;;;3.40;3.30;;;;;;;7.28;100.00;100491.66;6025178;23;20034;-69
2022/02/20 08:33:32;;;;;;;3.50;3.40;;;;;;;7.11;100.00;100418.44;6023032;23;20014;-68
2022/02/20 08:36:14;;;;;;;3.72;3.63;;;;;;;7.40;100.00;100474.63;5995421;23;20414;-69
2022/02/20 08:38:41;;;;;;;4.65;4.45;;;;;;;6.99;100.00;100420.63;6031185;23;20087;-68
2022/02/20 08:41:08;;;;;;;3.50;3.40;;;;;;;7.39;100.00;100484.19;5982182;23;20096;-69
2022/02/20 08:43:34;;;;;;;5.03;4.82;;;;;;;6.75;100.00;100357.31;6017651;23;20048;-69
2022/02/20 08:46:01;;;;;;;3.40;3.30;;;;;;;7.55;100.00;100466.13;6015280;23;20090;-68
2022/02/20 08:48:33;;;;;;;4.28;4.13;;;;;;;7.62;100.00;100471.06;5993865;23;20484;-68
2022/02/20 08:51:00;;;;;;;3.30;3.20;;;;;;;7.53;100.00;100427.94;6021482;23;20054;-68
2022/02/20 08:53:26;;;;;;;3.58;3.47;;;;;;;7.73;100.00;100469.69;5983251;23;20049;-68
2022/02/20 08:55:52;;;;;;;4.00;3.80;;;;;;;7.67;100.00;100453.47;5968561;23;20071;-67
2022/02/20 08:58:19;;;;;;;3.65;3.55;;;;;;;7.51;100.00;100416.72;6021422;23;20090;-68
2022/02/20 09:00:45;;;;;;;3.65;3.55;;;;;;;7.88;100.00;100469.97;6014282;23;20054;-68
2022/02/20 09:03:12;;;;;;;3.50;3.40;;;;;;;7.90;100.00;100455.91;6017498;23;20048;-68
2022/02/20 09:05:38;;;;;;;3.88;3.75;;;;;;;7.96;100.00;100458.22;6024089;23;20031;-69
2022/02/20 09:08:05;;;;;;;4.25;4.05;;;;;;;7.67;100.00;100416.88;5961940;23;20039;-68
2022/02/20 09:10:31;;;;;;;3.40;3.30;;;;;;;7.89;100.00;100459.41;5996757;23;20095;-67
2022/02/20 09:12:57;;;;;;;4.10;3.90;;;;;;;7.91;100.00;100454.97;6025047;23;20518;-67
2022/02/20 09:15:24;;;;;;;3.80;3.70;;;;;;;7.52;100.00;100359.22;6028403;23;20036;-68
2022/02/20 09:17:50;;;;;;;4.85;4.65;;;;;;;7.99;100.00;100465.06;5959393;23;20035;-67
2022/02/20 09:20:17;;;;;;;3.80;3.70;;;;;;;8.02;99.77;100462.34;6021501;23;20016;-67
2022/02/20 09:22:43;;;;;;;4.78;4.57;;;;;;;8.09;100.00;100455.06;5995674;23;20015;-68
2022/02/20 09:25:11;;;;;;;3.70;3.58;;;;;;;7.49;99.46;100372.38;5990820;23;20068;-67
2022/02/20 09:27:38;;;;;;;3.60;3.50;;;;;;;7.84;99.01;100417.00;5993913;23;20031;-67
2022/02/20 09:30:05;;;;;;;3.70;3.58;;;;;;;7.81;98.54;100385.75;6016070;23;20498;-67
2022/02/20 09:32:31;;;;;;;4.30;4.10;;;;;;;8.19;98.33;100451.09;6026150;23;20817;-67
2022/02/20 09:34:58;;;;;;;4.10;3.90;;;;;;;8.27;97.46;100455.97;5988114;23;20106;-69
2022/02/20 09:37:25;;;;;;;3.90;3.70;;;;;;;8.29;97.01;100456.75;6012386;23;20027;-68
2022/02/20 09:39:51;;;;;;;3.50;3.40;;;;;;;7.81;96.42;100380.53;6028770;23;20089;-67
2022/02/20 09:42:19;;;;;;;4.63;4.43;;;;;;;8.36;96.00;100450.34;5999638;23;20018;-68
2022/02/20 09:44:45;;;;;;;3.70;3.60;;;;;;;8.47;95.33;100470.75;6026909;23;20412;-68
2022/02/20 09:47:12;;;;;;;5.30;5.10;;;;;;;8.09;95.30;100405.41;6014455;23;20399;-69
2022/02/20 09:49:39;;;;;;;4.00;3.80;;;;;;;7.92;95.40;100374.84;5993149;23;20018;-69
2022/02/20 09:52:06;;;;;;;4.97;4.78;;;;;;;8.47;95.24;100460.31;6011732;23;20414;-70
2022/02/20 09:54:33;;;;;;;3.80;3.70;;;;;;;8.46;95.30;100455.97;6017108;23;20402;-69
2022/02/20 09:56:59;;;;;;;4.35;4.15;;;;;;;8.46;95.88;100445.53;6017619;23;20030;-69
2022/02/20 09:59:26;;;;;;;4.10;3.90;;;;;;;8.20;95.62;100395.31;6001719;23;20031;-68
2022/02/20 10:02:09;;;;;;;4.30;4.10;;;;;;;7.36;95.81;100264.22;6021396;23;20031;-69
2022/02/20 10:04:56;;;;;;;4.10;3.90;;;;;;;8.53;95.73;100442.53;6011755;23;20038;-71
2022/02/20 10:07:34;;;;;;;4.10;3.90;;;;;;;8.57;96.26;100435.41;6012808;23;20054;-70
2022/02/20 10:10:10;;;;;;;4.22;4.05;;;;;;;8.68;95.72;100435.75;5996687;23;20364;-69
2022/02/20 10:12:36;;;;;;;3.72;3.63;;;;;;;8.76;95.05;100425.75;6022689;23;20017;-70
2022/02/20 10:15:03;;;;;;;5.18;4.97;;;;;;;8.83;94.40;100425.44;6028679;23;20018;-70
2022/02/20 10:17:30;;;;;;;4.30;4.00;;;;;;;8.45;94.58;100358.38;6026396;23;20015;-70
2022/02/20 10:20:04;;;;;;;3.83;3.72;;;;;;;8.67;94.34;100396.56;6042220;23;20018;-72
2022/02/20 10:22:34;;;;;;;3.70;3.60;;;;;;;8.93;93.52;100426.69;6005802;23;20487;-69
2022/02/20 10:25:11;;;;;;;4.35;4.18;;;;;;;8.98;92.90;100420.31;6025111;23;20528;-70
2022/02/20 10:27:48;;;;;;;3.72;3.63;;;;;;;9.11;92.54;100409.22;6002170;23;20015;-68
2022/02/20 10:30:22;;;;;;;8.82;5.50;;;;;;;9.19;91.66;100420.13;6026447;23;20050;-70
2022/02/20 10:33:04;;;;;;;3.80;3.70;;;;;;;8.75;91.75;100347.31;6027366;23;20054;-68
2022/02/20 10:35:36;;;;;;;4.10;3.90;;;;;;;9.26;90.82;100434.63;6002214;23;20051;-67
2022/02/20 10:38:14;;;;;;;5.27;5.07;;;;;;;8.83;90.45;100321.63;6025519;23;20113;-67
2022/02/20 10:40:43;;;;;;;4.13;3.92;;;;;;;9.57;89.63;100418.16;6031439;23;20093;-67
2022/02/20 10:43:33;;;;;;;5.00;4.80;;;;;;;9.59;88.19;100405.81;6017028;23;20015;-68
2022/02/20 10:46:10;;;;;;;4.47;4.28;;;;;;;9.63;88.22;100382.94;5998823;23;20066;-68
2022/02/20 10:48:44;;;;;;;3.70;3.60;;;;;;;9.81;87.05;100412.53;5999907;23;20020;-67
2022/02/20 10:51:12;;;;;;;5.25;5.05;;;;;;;9.83;86.78;100412.47;5985121;23;20036;-67
2022/02/20 10:53:40;;;;;;;3.88;3.72;;;;;;;9.84;86.69;100408.91;6001894;23;20011;-67
2022/02/20 10:56:07;;;;;;;5.15;4.95;;;;;;;9.35;86.88;100354.72;6033175;23;20038;-68
2022/02/20 10:58:40;;;;;;;4.10;3.90;;;;;;;8.75;87.41;100240.91;5997509;23;20091;-68
2022/02/20 11:01:19;;;;;;;5.07;4.85;;;;;;;9.50;88.31;100408.06;6022332;23;20097;-69
2022/02/20 11:03:48;;;;;;;3.90;3.78;;;;;;;9.55;88.19;100417.38;6012818;23;20037;-67
2022/02/20 11:06:17;;;;;;;5.00;4.80;;;;;;;9.32;88.05;100367.97;6000707;23;20180;-68
2022/02/20 11:08:43;;;;;;;4.15;3.95;;;;;;;8.95;88.96;100341.91;5975591;23;20019;-67
2022/02/20 11:13:58;;;;;;;4.07;3.88;;;;;;;9.54;88.05;100422.69;6008227;23;20023;-68
2022/02/20 11:16:29;;;;;;;4.65;4.38;;;;;;;9.19;87.50;100355.53;6016605;23;20022;-68
2022/02/20 11:18:57;;;;;;;3.80;3.70;;;;;;;8.63;87.63;100262.47;6014310;23;20012;-70
2022/02/20 11:21:26;;;;;;;4.50;4.30;;;;;;;9.54;87.87;100386.88;5987761;23;20030;-67
2022/02/20 11:23:58;;;;;;;4.15;3.95;;;;;;;9.15;88.18;100335.66;6020333;23;20436;-68
2022/02/20 11:26:26;;;;;;;4.15;3.95;;;;;;;9.61;88.01;100397.88;5990827;23;20039;-68
2022/02/20 11:28:55;;;;;;;5.18;4.88;;;;;;;9.39;87.86;100370.19;5996997;23;20055;-68
2022/02/20 11:31:23;;;;;;;4.05;3.85;;;;;;;9.02;88.24;100300.59;6025610;23;20101;-68
2022/02/20 11:33:53;;;;;;;4.10;3.90;;;;;;;9.13;87.52;100319.19;6032202;23;20391;-68
2022/02/20 11:36:20;;;;;;;4.50;4.30;;;;;;;9.11;87.67;100300.09;6020293;23;20464;-68